Rutland, Pennsylvania
Current Conditions -  °F | °C
As of 1:55 AM on Friday 28 Nov 2014 (Local Time) from KN38 Reporting Station
Overcast Overcast  
Wind Chill: 20°   Ceiling: 2400
Heat Index: 28°   Visibility: 10mi
Dew Point: 21°   Wind: 8mph
Humidity: 74%   Direction: 250°WSW
Pressure: 30.02"   Gusts: NA
Location:  41.8345°N, 77.0538°W
Report Text: KN38 280655Z AUTO 25007KT 10SM BKN024 BKN028 OVC034 M02/M06 A3002 RMK AO2
Loading
Personal Weather Stations






























Interactive Weather Map New forecast layout! Learn more

10-Day Weather Forecast

Advertisements
Track Severe Weather on mobile